createdAt,value
2024-01-14T00:02:29.889Z,101481.47
2024-01-14T00:05:02.068Z,101479.72
2024-01-14T00:07:34.217Z,101482.03
2024-01-14T00:10:07.035Z,101473.47
2024-01-14T00:12:39.154Z,101453.97
2024-01-14T00:15:11.768Z,101473.38
2024-01-14T00:17:43.906Z,101469.66
2024-01-14T00:20:16.198Z,101457.00
2024-01-14T00:22:48.575Z,101457.56
2024-01-14T00:25:23.187Z,101461.84
2024-01-14T00:27:55.147Z,101456.78
2024-01-14T00:30:27.228Z,101455.19
2024-01-14T00:32:59.318Z,101445.84
2024-01-14T00:35:31.405Z,101454.66
2024-01-14T00:38:03.735Z,101437.94
2024-01-14T00:40:36.227Z,101444.94
2024-01-14T00:43:08.226Z,101438.84
2024-01-14T00:45:40.240Z,101431.84
2024-01-14T00:48:12.576Z,101435.47
2024-01-14T00:50:44.788Z,101429.59
2024-01-14T00:53:16.758Z,101427.91
2024-01-14T00:55:48.762Z,101421.59
2024-01-14T00:58:20.766Z,101427.00
2024-01-14T01:00:53.300Z,101426.88
2024-01-14T01:03:25.451Z,101424.41
2024-01-14T01:05:57.638Z,101414.72
2024-01-14T01:08:29.614Z,101421.69
2024-01-14T01:11:01.557Z,101412.34
2024-01-14T01:13:33.528Z,101411.31
2024-01-14T01:16:05.887Z,101412.22
2024-01-14T01:18:38.139Z,101406.03
2024-01-14T01:21:10.280Z,101397.34
2024-01-14T01:23:42.303Z,101390.31
2024-01-14T01:26:15.192Z,101397.34
2024-01-14T01:28:47.235Z,101401.38
2024-01-14T01:31:27.591Z,101392.13
2024-01-14T01:34:06.904Z,101388.75
2024-01-14T01:36:39.047Z,101388.84
2024-01-14T01:39:11.110Z,101390.75
2024-01-14T01:41:43.057Z,101386.81
2024-01-14T01:44:15.026Z,101389.28
2024-01-14T01:46:48.834Z,101397.97
2024-01-14T01:49:21.625Z,101396.44
2024-01-14T01:51:54.548Z,101393.81
2024-01-14T01:54:29.666Z,101389.41
2024-01-14T01:57:02.002Z,101391.88
2024-01-14T01:59:34.972Z,101384.22
2024-01-14T02:02:07.187Z,101386.25
2024-01-14T02:04:39.975Z,101388.28
2024-01-14T02:07:12.939Z,101372.47
2024-01-14T02:09:44.869Z,101377.31
2024-01-14T02:12:16.847Z,101376.53
2024-01-14T02:14:48.951Z,101365.13
2024-01-14T02:17:20.907Z,101368.53
2024-01-14T02:19:52.976Z,101366.34
2024-01-14T02:22:32.283Z,101360.84
2024-01-14T02:25:05.219Z,101358.34
2024-01-14T02:27:37.409Z,101359.13
2024-01-14T02:30:11.288Z,101355.09
2024-01-14T02:32:43.511Z,101360.09
2024-01-14T02:35:15.712Z,101365.06
2024-01-14T02:37:48.800Z,101364.81
2024-01-14T02:40:20.898Z,101346.75
2024-01-14T02:42:52.934Z,101353.88
2024-01-14T02:45:24.938Z,101337.06
2024-01-14T02:47:57.041Z,101337.28
2024-01-14T02:50:29.313Z,101339.75
2024-01-14T02:53:01.268Z,101335.03
2024-01-14T02:55:33.235Z,101328.03
2024-01-14T02:58:05.223Z,101323.31
2024-01-14T03:00:37.305Z,101307.75
2024-01-14T03:03:09.395Z,101305.72
2024-01-14T03:05:41.444Z,101308.31
2024-01-14T03:08:13.452Z,101303.47
2024-01-14T03:10:45.618Z,101303.25
2024-01-14T03:13:18.035Z,101289.50
2024-01-14T03:15:50.081Z,101286.22
2024-01-14T03:18:22.279Z,101288.81
2024-01-14T03:20:54.388Z,101287.00
2024-01-14T03:23:26.379Z,101289.72
2024-01-14T03:25:58.593Z,101279.44
2024-01-14T03:28:30.683Z,101277.41
2024-01-14T03:31:03.004Z,101278.66
2024-01-14T03:33:35.870Z,101268.97
2024-01-14T03:36:08.175Z,101258.28
2024-01-14T03:38:40.141Z,101263.59
2024-01-14T03:41:13.596Z,101256.56
2024-01-14T03:43:45.623Z,101262.88
2024-01-14T03:46:17.809Z,101256.78
2024-01-14T03:48:49.937Z,101257.81
2024-01-14T03:51:22.104Z,101258.81
2024-01-14T03:53:54.165Z,101261.41
2024-01-14T03:56:26.125Z,101255.25
2024-01-14T03:58:58.049Z,101248.94
2024-01-14T04:01:30.047Z,101250.19
2024-01-14T04:04:02.269Z,101257.47
2024-01-14T04:06:34.621Z,101247.59
2024-01-14T04:09:06.796Z,101240.81
2024-01-14T04:11:38.805Z,101247.81
2024-01-14T04:14:10.858Z,101242.63
2024-01-14T04:16:43.186Z,101246.34
2024-01-14T04:19:15.159Z,101233.69
2024-01-14T04:21:47.655Z,101236.28
2024-01-14T04:24:19.628Z,101232.88
2024-01-14T04:26:51.648Z,101230.41
2024-01-14T04:29:23.626Z,101238.28
2024-01-14T04:31:55.593Z,101234.69
2024-01-14T04:34:27.712Z,101216.91
2024-01-14T04:36:59.977Z,101236.28
2024-01-14T04:39:32.055Z,101231.69
2024-01-14T04:42:04.543Z,101214.78
2024-01-14T04:44:36.512Z,101220.28
2024-01-14T04:47:08.445Z,101213.09
2024-01-14T04:49:40.518Z,101229.16
2024-01-14T04:52:12.609Z,101222.22
2024-01-14T04:54:44.587Z,101222.09
2024-01-14T04:57:16.705Z,101206.09
2024-01-14T04:59:48.714Z,101209.69
2024-01-14T05:02:20.666Z,101205.53
2024-01-14T05:04:52.725Z,101191.66
2024-01-14T05:07:24.714Z,101197.53
2024-01-14T05:09:56.691Z,101195.94
2024-01-14T05:12:28.734Z,101188.72
2024-01-14T05:15:01.687Z,101193.28
2024-01-14T05:17:33.888Z,101187.38
2024-01-14T05:20:07.333Z,101177.22
2024-01-14T05:22:39.321Z,101182.31
2024-01-14T05:25:11.466Z,101183.09
2024-01-14T05:27:43.512Z,101170.94
2024-01-14T05:30:15.979Z,101167.13
2024-01-14T05:32:48.019Z,101172.53
2024-01-14T05:35:20.014Z,101164.63
2024-01-14T05:37:51.958Z,101168.91
2024-01-14T05:40:25.006Z,101160.22
2024-01-14T05:42:56.918Z,101164.41
2024-01-14T05:45:28.903Z,101150.44
2024-01-14T05:48:00.948Z,101158.88
2024-01-14T05:50:32.975Z,101161.94
2024-01-14T05:53:05.065Z,101169.94
2024-01-14T05:55:37.077Z,101157.88
2024-01-14T05:58:09.717Z,101160.59
2024-01-14T06:00:41.868Z,101159.69
2024-01-14T06:03:14.076Z,101144.16
2024-01-14T06:05:46.220Z,101140.72
2024-01-14T06:08:18.164Z,101136.25
2024-01-14T06:10:50.126Z,101127.91
2024-01-14T06:13:22.394Z,101133.09
2024-01-14T06:15:54.427Z,101128.59
2024-01-14T06:18:26.605Z,101119.78
2024-01-14T06:21:01.577Z,101122.84
2024-01-14T06:23:35.442Z,101116.63
2024-01-14T06:26:07.382Z,101118.22
2024-01-14T06:28:39.358Z,101119.78
2024-01-14T06:31:11.506Z,101116.53
2024-01-14T06:33:43.520Z,101114.16
2024-01-14T06:36:18.806Z,101112.34
2024-01-14T06:38:51.006Z,101101.97
2024-01-14T06:41:26.651Z,101104.69
2024-01-14T06:43:58.713Z,101079.38
2024-01-14T06:46:30.663Z,101097.56
2024-01-14T06:49:03.087Z,101093.28
2024-01-14T06:51:35.138Z,101100.84
2024-01-14T06:54:07.201Z,101089.91
2024-01-14T06:56:46.533Z,101089.69
2024-01-14T06:59:20.154Z,101092.28
2024-01-14T07:01:52.925Z,101092.28
2024-01-14T07:04:25.029Z,101086.19
2024-01-14T07:06:57.379Z,101084.31
2024-01-14T07:09:29.409Z,101067.53
2024-01-14T07:12:05.370Z,101078.78
2024-01-14T07:14:37.413Z,101081.25
2024-01-14T07:17:09.469Z,101079.69
2024-01-14T07:19:41.528Z,101087.13
2024-01-14T07:22:13.719Z,101077.53
2024-01-14T07:24:45.799Z,101080.13
2024-01-14T07:27:17.777Z,101086.91
2024-01-14T07:29:49.731Z,101070.69
2024-01-14T07:32:21.743Z,101078.25
2024-01-14T07:34:53.819Z,101080.63
2024-01-14T07:37:26.193Z,101083.22
2024-01-14T07:39:58.228Z,101087.63
2024-01-14T07:42:30.251Z,101074.09
2024-01-14T07:45:04.170Z,101071.03
2024-01-14T07:47:36.140Z,101075.44
2024-01-14T07:50:08.683Z,101066.06
2024-01-14T07:52:40.676Z,101075.63
2024-01-14T07:55:12.741Z,101061.91
2024-01-14T07:57:44.781Z,101074.09
2024-01-14T08:00:18.168Z,101072.28
2024-01-14T08:02:50.353Z,101082.66
2024-01-14T08:05:22.373Z,101074.66
2024-01-14T08:07:54.362Z,101061.50
2024-01-14T08:10:26.457Z,101070.03
2024-01-14T08:12:58.652Z,101067.34
2024-01-14T08:15:31.213Z,101054.66
2024-01-14T08:18:07.618Z,101059.47
2024-01-14T08:20:39.829Z,101073.63
2024-01-14T08:23:13.490Z,101062.28
2024-01-14T08:25:46.675Z,101064.28
2024-01-14T08:28:18.718Z,101065.28
2024-01-14T08:30:50.701Z,101059.91
2024-01-14T08:33:22.794Z,101072.28
2024-01-14T08:35:58.322Z,101077.75
2024-01-14T08:38:30.441Z,101064.03
2024-01-14T08:41:02.469Z,101066.63
2024-01-14T08:43:34.492Z,101068.41
2024-01-14T08:46:06.478Z,101062.34
2024-01-14T08:48:38.593Z,101066.75
2024-01-14T08:51:11.459Z,101061.56
2024-01-14T08:53:43.538Z,101055.56
2024-01-14T08:56:15.675Z,101059.16
2024-01-14T08:58:48.300Z,101065.56
2024-01-14T09:01:20.234Z,101055.56
2024-01-14T09:03:53.229Z,101059.16
2024-01-14T09:06:25.579Z,101057.28
2024-01-14T09:08:57.737Z,101056.44
2024-01-14T09:11:29.704Z,101059.88
2024-01-14T09:14:01.846Z,101071.34
2024-01-14T09:16:33.811Z,101065.03
2024-01-14T09:19:06.064Z,101048.84
2024-01-14T09:21:38.217Z,101059.03
2024-01-14T09:24:10.516Z,101053.19
2024-01-14T09:26:42.520Z,101042.91
2024-01-14T09:29:14.607Z,101041.03
2024-01-14T09:31:47.035Z,101034.81
2024-01-14T09:34:19.263Z,101033.25
2024-01-14T09:36:51.301Z,101040.44
2024-01-14T09:39:23.315Z,101031.44
2024-01-14T09:42:25.405Z,101031.22
2024-01-14T09:45:03.338Z,101024.44
2024-01-14T09:47:37.103Z,101031.66
2024-01-14T09:50:11.263Z,101023.09
2024-01-14T09:52:43.647Z,101021.28
2024-01-14T09:55:15.999Z,101019.50
2024-01-14T09:57:51.086Z,101019.72
2024-01-14T10:00:24.623Z,101019.91
2024-01-14T10:02:57.776Z,101014.72
2024-01-14T10:05:29.889Z,101003.56
2024-01-14T10:08:02.004Z,101008.84
2024-01-14T10:10:35.074Z,101017.63
2024-01-14T10:13:09.103Z,101007.75
2024-01-14T10:15:48.569Z,101018.53
2024-01-14T10:18:24.102Z,101020.31
2024-01-14T10:20:57.777Z,101013.13
2024-01-14T10:23:30.036Z,101001.00
2024-01-14T10:26:02.926Z,100997.56
2024-01-14T10:28:39.686Z,100995.19
2024-01-14T10:31:12.392Z,100997.56
2024-01-14T10:33:46.493Z,100994.00
2024-01-14T10:36:18.959Z,100982.41
2024-01-14T10:38:53.715Z,100981.81
2024-01-14T10:41:26.809Z,100981.59
2024-01-14T10:43:59.175Z,100979.00
2024-01-14T10:46:33.897Z,100975.06
2024-01-14T10:49:09.722Z,100973.47
2024-01-14T10:51:43.796Z,100970.94
2024-01-14T10:54:48.710Z,100966.84
2024-01-14T10:57:36.785Z,100963.59
2024-01-14T11:00:10.788Z,100953.63
2024-01-14T11:02:46.036Z,100947.63
2024-01-14T11:05:20.816Z,100945.53
2024-01-14T11:07:54.834Z,100940.84
2024-01-14T11:10:27.031Z,100943.44
2024-01-14T11:13:29.547Z,100926.44
2024-01-14T11:16:19.745Z,100915.38
2024-01-14T11:19:10.886Z,100901.44
2024-01-14T11:22:32.033Z,100904.59
2024-01-14T11:25:18.928Z,100904.59
2024-01-14T11:27:54.947Z,100897.63
2024-01-14T11:30:54.646Z,100892.22
2024-01-14T11:33:30.463Z,100890.16
2024-01-14T11:36:03.010Z,100888.28
2024-01-14T11:38:44.798Z,100883.16
2024-01-14T11:41:31.986Z,100876.50
2024-01-14T11:44:15.113Z,100871.63
2024-01-14T11:46:52.026Z,100865.94
2024-01-14T11:49:32.571Z,100861.78
2024-01-14T11:52:09.037Z,100848.13
2024-01-14T11:54:45.471Z,100858.81
2024-01-14T11:57:27.116Z,100848.63
2024-01-14T11:59:59.394Z,100856.47
2024-01-14T12:02:31.536Z,100852.69
2024-01-14T12:05:23.960Z,100857.69
2024-01-14T12:07:56.170Z,100841.22
2024-01-14T12:10:33.343Z,100838.72
2024-01-14T12:13:10.956Z,100828.47
2024-01-14T12:15:51.762Z,100805.94
2024-01-14T12:18:45.565Z,100799.25
2024-01-14T12:21:27.471Z,100808.91
2024-01-14T12:24:05.194Z,100801.97
2024-01-14T12:26:37.146Z,100797.44
2024-01-14T12:29:09.575Z,100790.78
2024-01-14T12:31:49.974Z,100780.22
2024-01-14T12:34:30.605Z,100783.63
2024-01-14T12:37:02.927Z,100771.53
2024-01-14T12:39:36.073Z,100766.66
2024-01-14T12:42:08.263Z,100762.50
2024-01-14T12:44:48.147Z,100759.66
2024-01-14T12:47:20.494Z,100755.09
2024-01-14T12:49:55.948Z,100748.31
2024-01-14T12:52:28.164Z,100736.56
2024-01-14T12:55:00.388Z,100738.13
2024-01-14T12:57:32.513Z,100733.75
2024-01-14T13:00:04.947Z,100730.75
2024-01-14T13:02:37.046Z,100722.28
2024-01-14T13:05:09.086Z,100724.25
2024-01-14T13:07:42.193Z,100737.31
2024-01-14T13:10:14.355Z,100733.34
2024-01-14T13:12:47.244Z,100727.06
2024-01-14T13:15:19.806Z,100715.81
2024-01-14T13:17:53.326Z,100719.22
2024-01-14T13:20:25.461Z,100720.31
2024-01-14T13:22:57.538Z,100707.41
2024-01-14T13:25:29.515Z,100697.56
2024-01-14T13:28:01.468Z,100705.66
2024-01-14T13:30:33.565Z,100682.53
2024-01-14T13:33:06.233Z,100695.09
2024-01-14T13:35:38.329Z,100693.28
2024-01-14T13:38:10.290Z,100697.25
2024-01-14T13:40:42.221Z,100691.97
2024-01-14T13:43:14.371Z,100685.59
2024-01-14T13:45:46.307Z,100676.53
2024-01-14T13:48:18.645Z,100681.13
2024-01-14T13:50:50.729Z,100675.34
2024-01-14T13:53:22.723Z,100673.63
2024-01-14T13:55:54.723Z,100675.41
2024-01-14T13:58:26.711Z,100667.75
2024-01-14T14:00:58.959Z,100665.75
2024-01-14T14:03:31.068Z,100663.97
2024-01-14T14:06:03.636Z,100667.75
2024-01-14T14:08:35.742Z,100666.84
2024-01-14T14:11:07.726Z,100654.59
2024-01-14T14:13:39.718Z,100665.94
2024-01-14T14:16:14.982Z,100650.31
2024-01-14T14:18:49.516Z,100642.34
2024-01-14T14:21:21.937Z,100634.63
2024-01-14T14:23:53.978Z,100629.66
2024-01-14T14:26:29.124Z,100612.31
2024-01-14T14:29:01.154Z,100619.09
2024-01-14T14:31:43.915Z,100612.31
2024-01-14T14:34:21.747Z,100608.13
2024-01-14T14:36:54.168Z,100603.72
2024-01-14T14:39:27.541Z,100592.56
2024-01-14T14:41:59.600Z,100586.75
2024-01-14T14:44:31.586Z,100591.16
2024-01-14T14:47:05.465Z,100590.34
2024-01-14T14:49:37.565Z,100593.75
2024-01-14T14:52:09.644Z,100586.94
2024-01-14T14:54:41.746Z,100587.13
2024-01-14T14:57:13.762Z,100587.75
2024-01-14T14:59:45.722Z,100583.38
2024-01-14T15:02:17.719Z,100580.56
2024-01-14T15:04:50.016Z,100577.72
2024-01-14T15:07:22.151Z,100579.59
2024-01-14T15:09:55.065Z,100579.06
2024-01-14T15:12:27.956Z,100582.31
2024-01-14T15:15:00.029Z,100574.94
2024-01-14T15:17:31.999Z,100564.66
2024-01-14T15:20:06.607Z,100549.09
2024-01-14T15:22:40.428Z,100538.66
2024-01-14T15:25:12.421Z,100525.41
2024-01-14T15:27:44.686Z,100539.28
2024-01-14T15:30:17.000Z,100530.47
2024-01-14T15:32:49.321Z,100528.00
2024-01-14T15:35:21.737Z,100525.59
2024-01-14T15:37:53.854Z,100524.00
2024-01-14T15:40:27.183Z,100525.78
2024-01-14T15:43:00.829Z,100511.47
2024-01-14T15:45:32.922Z,100524.78
2024-01-14T15:48:06.999Z,100509.69
2024-01-14T15:50:39.068Z,100499.13
2024-01-14T15:53:11.003Z,100514.13
2024-01-14T15:55:43.094Z,100501.78
2024-01-14T15:58:15.063Z,100498.41
2024-01-14T16:01:00.119Z,100495.72
2024-01-14T16:03:44.213Z,100502.34
2024-01-14T16:06:18.300Z,100490.09
2024-01-14T16:08:50.270Z,100496.34
2024-01-14T16:11:22.346Z,100492.88
2024-01-14T16:13:54.390Z,100491.06
2024-01-14T16:16:27.492Z,100498.13
2024-01-14T16:18:59.563Z,100494.56
2024-01-14T16:21:31.718Z,100488.59
2024-01-14T16:24:04.325Z,100484.97
2024-01-14T16:26:38.244Z,100486.78
2024-01-14T16:29:10.340Z,100484.38
2024-01-14T16:31:42.507Z,100486.97
2024-01-14T16:34:14.668Z,100483.59
2024-01-14T16:36:48.489Z,100479.19
2024-01-14T16:39:20.622Z,100483.59
2024-01-14T16:41:52.603Z,100469.63
2024-01-14T16:44:25.388Z,100476.41
2024-01-14T16:46:57.408Z,100471.06
2024-01-14T16:49:29.488Z,100471.25
2024-01-14T16:52:01.718Z,100470.34
2024-01-14T16:54:34.357Z,100459.50
2024-01-14T16:57:06.418Z,100468.91
2024-01-14T16:59:38.441Z,100451.53
2024-01-14T17:02:10.473Z,100456.72
2024-01-14T17:04:42.462Z,100449.75
2024-01-14T17:07:14.429Z,100449.75
2024-01-14T17:09:46.449Z,100445.41
2024-01-14T17:12:19.015Z,100459.31
2024-01-14T17:14:51.068Z,100437.63
2024-01-14T17:17:23.448Z,100439.22
2024-01-14T17:19:56.128Z,100435.03
2024-01-14T17:22:28.127Z,100431.84
2024-01-14T17:25:00.117Z,100419.31
2024-01-14T17:27:32.644Z,100421.91
2024-01-14T17:30:05.188Z,100436.72
2024-01-14T17:32:37.338Z,100415.81
2024-01-14T17:35:15.328Z,100414.38
2024-01-14T17:37:48.856Z,100420.34
2024-01-14T17:40:20.841Z,100417.41
2024-01-14T17:42:52.790Z,100423.84
2024-01-14T17:45:24.747Z,100392.53
2024-01-14T17:47:56.797Z,100428.47
2024-01-14T17:50:28.791Z,100429.19
2024-01-14T17:53:05.522Z,100417.84
2024-01-14T17:55:38.107Z,100419.75
2024-01-14T17:58:10.046Z,100409.19
2024-01-14T18:00:42.188Z,100412.34
2024-01-14T18:03:14.613Z,100408.78
2024-01-14T18:05:47.919Z,100404.38
2024-01-14T18:08:19.923Z,100398.28
2024-01-14T18:10:52.101Z,100416.53
2024-01-14T18:13:24.246Z,100411.06
2024-01-14T18:15:57.671Z,100398.63
2024-01-14T18:18:29.891Z,100398.84
2024-01-14T18:21:02.735Z,100396.25
2024-01-14T18:23:34.804Z,100397.84
2024-01-14T18:26:06.778Z,100396.25
2024-01-14T18:28:38.831Z,100394.75
2024-01-14T18:31:15.885Z,100400.88
2024-01-14T18:33:49.020Z,100396.69
2024-01-14T18:36:22.847Z,100397.59
2024-01-14T18:38:54.897Z,100390.63
2024-01-14T18:41:27.983Z,100390.63
2024-01-14T18:43:59.947Z,100381.13
2024-01-14T18:46:33.129Z,100375.78
2024-01-14T18:49:05.179Z,100390.06
2024-01-14T18:51:41.316Z,100382.91
2024-01-14T18:54:13.593Z,100386.16
2024-01-14T18:56:46.712Z,100388.72
2024-01-14T18:59:18.791Z,100380.75
2024-01-14T19:01:50.750Z,100380.25
2024-01-14T19:04:23.674Z,100369.28
2024-01-14T19:06:55.834Z,100375.13
2024-01-14T19:09:28.270Z,100376.66
2024-01-14T19:12:00.335Z,100386.31
2024-01-14T19:14:32.396Z,100384.63
2024-01-14T19:17:05.176Z,100387.84
2024-01-14T19:19:37.190Z,100382.53
2024-01-14T19:22:09.517Z,100388.44
2024-01-14T19:24:44.889Z,100396.09
2024-01-14T19:27:17.150Z,100388.44
2024-01-14T19:29:49.566Z,100377.19
2024-01-14T19:32:21.848Z,100374.00
2024-01-14T19:34:54.133Z,100371.47
2024-01-14T19:37:28.079Z,100377.72
2024-01-14T19:40:00.328Z,100376.31
2024-01-14T19:42:33.627Z,100379.81
2024-01-14T19:45:06.481Z,100376.31
2024-01-14T19:47:39.484Z,100374.69
2024-01-14T19:50:12.235Z,100374.53
2024-01-14T19:52:44.406Z,100367.81
2024-01-14T19:55:16.886Z,100369.91
2024-01-14T19:57:49.337Z,100350.59
2024-01-14T20:00:23.202Z,100359.72
2024-01-14T20:02:55.753Z,100355.44
2024-01-14T20:05:27.814Z,100354.53
2024-01-14T20:07:59.751Z,100337.38
2024-01-14T20:10:32.200Z,100337.31
2024-01-14T20:13:04.673Z,100335.59
2024-01-14T20:15:36.795Z,100332.13
2024-01-14T20:18:08.927Z,100332.91
2024-01-14T20:20:40.993Z,100326.66
2024-01-14T20:23:13.064Z,100333.44
2024-01-14T20:25:45.114Z,100321.31
2024-01-14T20:28:17.153Z,100320.94
2024-01-14T20:30:50.713Z,100318.53
2024-01-14T20:33:25.541Z,100312.72
2024-01-14T20:35:58.857Z,100313.72
2024-01-14T20:38:31.370Z,100310.22
2024-01-14T20:41:03.522Z,100307.75
2024-01-14T20:43:35.539Z,100311.41
2024-01-14T20:46:07.781Z,100309.69
2024-01-14T20:48:39.896Z,100314.16
2024-01-14T20:51:12.029Z,100314.84
2024-01-14T20:53:44.739Z,100302.56
2024-01-14T20:56:16.931Z,100295.41
2024-01-14T20:58:48.907Z,100304.31
2024-01-14T21:01:22.117Z,100313.09
2024-01-14T21:03:55.628Z,100311.13
2024-01-14T21:06:28.902Z,100304.16
2024-01-14T21:09:01.339Z,100303.34
2024-01-14T21:11:33.939Z,100299.16
2024-01-14T21:14:05.921Z,100302.72
2024-01-14T21:16:39.645Z,100301.09
2024-01-14T21:19:12.907Z,100292.38
2024-01-14T21:21:44.993Z,100288.72
2024-01-14T21:24:19.054Z,100300.75
2024-01-14T21:26:51.312Z,100294.78
2024-01-14T21:29:23.300Z,100275.94
2024-01-14T21:31:56.038Z,100281.19
2024-01-14T21:34:28.032Z,100282.19
2024-01-14T21:37:00.098Z,100288.94
2024-01-14T21:39:32.496Z,100285.91
2024-01-14T21:42:04.805Z,100280.56
2024-01-14T21:44:36.851Z,100282.34
2024-01-14T21:47:09.169Z,100272.28
2024-01-14T21:49:41.349Z,100266.41
2024-01-14T21:52:13.470Z,100277.50
2024-01-14T21:54:45.573Z,100278.41
2024-01-14T21:57:18.216Z,100278.50
2024-01-14T21:59:50.192Z,100290.56
2024-01-14T22:02:22.309Z,100278.50
2024-01-14T22:04:54.502Z,100272.50
2024-01-14T22:07:26.532Z,100277.34
2024-01-14T22:09:58.819Z,100266.25
2024-01-14T22:12:30.852Z,100256.78
2024-01-14T22:15:03.018Z,100260.38
2024-01-14T22:17:35.091Z,100261.34
2024-01-14T22:20:08.701Z,100275.19
2024-01-14T22:22:40.931Z,100271.09
2024-01-14T22:25:12.992Z,100275.44
2024-01-14T22:27:45.047Z,100268.56
2024-01-14T22:30:17.256Z,100254.53
2024-01-14T22:32:49.509Z,100268.03
2024-01-14T22:35:22.466Z,100269.72
2024-01-14T22:37:55.481Z,100272.38
2024-01-14T22:40:27.547Z,100274.28
2024-01-14T22:42:59.555Z,100269.16
2024-01-14T22:45:31.824Z,100268.38
2024-01-14T22:48:04.555Z,100273.56
2024-01-14T22:50:36.669Z,100271.94
2024-01-14T22:53:08.695Z,100261.56
2024-01-14T22:55:40.738Z,100260.75
2024-01-14T22:58:14.004Z,100271.22
2024-01-14T23:00:46.544Z,100271.47
2024-01-14T23:03:18.769Z,100274.22
2024-01-14T23:05:50.845Z,100271.63
2024-01-14T23:08:26.023Z,100271.56
2024-01-14T23:11:00.002Z,100280.88
2024-01-14T23:13:32.450Z,100297.22
2024-01-14T23:16:05.576Z,100291.88
2024-01-14T23:18:37.781Z,100296.59
2024-01-14T23:21:09.938Z,100301.44
2024-01-14T23:23:41.966Z,100295.19
2024-01-14T23:26:13.982Z,100287.88
2024-01-14T23:28:46.043Z,100285.91
2024-01-14T23:31:18.326Z,100274.59
2024-01-14T23:33:53.232Z,100261.63
2024-01-14T23:36:26.244Z,100260.72
2024-01-14T23:38:58.570Z,100251.81
2024-01-14T23:41:30.637Z,100258.25
2024-01-14T23:44:02.660Z,100254.81
2024-01-14T23:46:34.666Z,100258.25
2024-01-14T23:49:07.328Z,100259.03
2024-01-14T23:51:39.448Z,100249.63
2024-01-14T23:54:11.759Z,100241.97
2024-01-14T23:56:44.201Z,100239.38
2024-01-14T23:59:16.243Z,100244.63
